sensor_id;sensor_type;location;lat;lon;timestamp;P1;durP1;ratioP1;P2;durP2;ratioP2
51981;SDS011;37998;53.416;6.730;2023-03-13T00:01:27;27.30;;;6.57;;
51981;SDS011;37998;53.416;6.730;2023-03-13T00:03:55;33.13;;;8.05;;
51981;SDS011;37998;53.416;6.730;2023-03-13T00:06:22;31.42;;;7.75;;
51981;SDS011;37998;53.416;6.730;2023-03-13T00:08:49;26.60;;;7.32;;
51981;SDS011;37998;53.416;6.730;2023-03-13T00:11:15;27.88;;;8.15;;
51981;SDS011;37998;53.416;6.730;2023-03-13T00:13:41;38.40;;;7.72;;
51981;SDS011;37998;53.416;6.730;2023-03-13T00:16:08;28.20;;;6.80;;
51981;SDS011;37998;53.416;6.730;2023-03-13T00:18:43;26.15;;;6.95;;
51981;SDS011;37998;53.416;6.730;2023-03-13T00:21:13;34.22;;;7.18;;
51981;SDS011;37998;53.416;6.730;2023-03-13T00:23:39;21.55;;;6.18;;
51981;SDS011;37998;53.416;6.730;2023-03-13T00:26:06;29.80;;;7.68;;
51981;SDS011;37998;53.416;6.730;2023-03-13T00:28:33;23.80;;;5.88;;
51981;SDS011;37998;53.416;6.730;2023-03-13T00:33:31;30.02;;;6.95;;
51981;SDS011;37998;53.416;6.730;2023-03-13T00:35:58;28.90;;;6.78;;
51981;SDS011;37998;53.416;6.730;2023-03-13T00:38:26;28.23;;;7.13;;
51981;SDS011;37998;53.416;6.730;2023-03-13T00:40:58;38.35;;;7.18;;
51981;SDS011;37998;53.416;6.730;2023-03-13T00:43:25;29.10;;;6.78;;
51981;SDS011;37998;53.416;6.730;2023-03-13T00:45:51;33.40;;;8.25;;
51981;SDS011;37998;53.416;6.730;2023-03-13T00:48:16;26.90;;;6.78;;
51981;SDS011;37998;53.416;6.730;2023-03-13T00:50:42;37.20;;;7.78;;
51981;SDS011;37998;53.416;6.730;2023-03-13T00:53:07;26.35;;;6.68;;
51981;SDS011;37998;53.416;6.730;2023-03-13T00:55:33;33.72;;;7.30;;
51981;SDS011;37998;53.416;6.730;2023-03-13T00:57:58;34.88;;;7.93;;
51981;SDS011;37998;53.416;6.730;2023-03-13T01:00:24;38.67;;;8.45;;
51981;SDS011;37998;53.416;6.730;2023-03-13T01:02:50;35.47;;;7.80;;
51981;SDS011;37998;53.416;6.730;2023-03-13T01:05:15;37.67;;;8.30;;
51981;SDS011;37998;53.416;6.730;2023-03-13T01:07:41;31.52;;;7.82;;
51981;SDS011;37998;53.416;6.730;2023-03-13T01:10:07;37.78;;;8.70;;
51981;SDS011;37998;53.416;6.730;2023-03-13T01:12:33;40.05;;;8.82;;
51981;SDS011;37998;53.416;6.730;2023-03-13T01:14:58;35.13;;;8.85;;
51981;SDS011;37998;53.416;6.730;2023-03-13T01:17:24;33.03;;;8.48;;
51981;SDS011;37998;53.416;6.730;2023-03-13T01:19:49;38.83;;;9.18;;
51981;SDS011;37998;53.416;6.730;2023-03-13T01:22:15;29.95;;;8.50;;
51981;SDS011;37998;53.416;6.730;2023-03-13T01:24:41;35.78;;;8.98;;
51981;SDS011;37998;53.416;6.730;2023-03-13T01:27:06;36.92;;;8.70;;
51981;SDS011;37998;53.416;6.730;2023-03-13T01:29:32;38.15;;;9.45;;
51981;SDS011;37998;53.416;6.730;2023-03-13T01:31:57;32.90;;;8.45;;
51981;SDS011;37998;53.416;6.730;2023-03-13T01:34:23;44.67;;;9.43;;
51981;SDS011;37998;53.416;6.730;2023-03-13T01:36:49;28.75;;;8.98;;
51981;SDS011;37998;53.416;6.730;2023-03-13T01:39:16;26.85;;;8.05;;
51981;SDS011;37998;53.416;6.730;2023-03-13T01:41:42;36.55;;;9.05;;
51981;SDS011;37998;53.416;6.730;2023-03-13T01:44:21;33.03;;;9.52;;
51981;SDS011;37998;53.416;6.730;2023-03-13T01:46:48;36.88;;;9.52;;
51981;SDS011;37998;53.416;6.730;2023-03-13T01:49:26;38.83;;;8.95;;
51981;SDS011;37998;53.416;6.730;2023-03-13T01:51:58;32.40;;;8.68;;
51981;SDS011;37998;53.416;6.730;2023-03-13T01:54:36;32.58;;;9.13;;
51981;SDS011;37998;53.416;6.730;2023-03-13T01:57:24;32.53;;;8.52;;
51981;SDS011;37998;53.416;6.730;2023-03-13T02:02:37;32.72;;;7.70;;
51981;SDS011;37998;53.416;6.730;2023-03-13T02:05:06;36.28;;;9.02;;
51981;SDS011;37998;53.416;6.730;2023-03-13T02:07:37;28.45;;;8.48;;
51981;SDS011;37998;53.416;6.730;2023-03-13T02:10:12;34.63;;;8.02;;
51981;SDS011;37998;53.416;6.730;2023-03-13T02:12:42;30.38;;;8.07;;
51981;SDS011;37998;53.416;6.730;2023-03-13T02:17:39;31.27;;;8.32;;
51981;SDS011;37998;53.416;6.730;2023-03-13T02:20:06;33.20;;;8.32;;
51981;SDS011;37998;53.416;6.730;2023-03-13T02:28:13;31.52;;;8.65;;
51981;SDS011;37998;53.416;6.730;2023-03-13T02:30:43;34.67;;;7.80;;
51981;SDS011;37998;53.416;6.730;2023-03-13T02:33:12;34.83;;;7.85;;
51981;SDS011;37998;53.416;6.730;2023-03-13T02:35:39;34.60;;;8.07;;
51981;SDS011;37998;53.416;6.730;2023-03-13T02:38:07;33.08;;;7.85;;
51981;SDS011;37998;53.416;6.730;2023-03-13T02:40:36;34.50;;;8.07;;
51981;SDS011;37998;53.416;6.730;2023-03-13T02:43:16;28.25;;;7.85;;
51981;SDS011;37998;53.416;6.730;2023-03-13T02:46:02;35.60;;;7.20;;
51981;SDS011;37998;53.416;6.730;2023-03-13T02:48:41;39.28;;;7.82;;
51981;SDS011;37998;53.416;6.730;2023-03-13T02:51:10;40.17;;;8.95;;
51981;SDS011;37998;53.416;6.730;2023-03-13T02:53:37;37.13;;;7.90;;
51981;SDS011;37998;53.416;6.730;2023-03-13T02:56:03;21.73;;;7.88;;
51981;SDS011;37998;53.416;6.730;2023-03-13T02:58:39;28.05;;;7.95;;
51981;SDS011;37998;53.416;6.730;2023-03-13T03:01:06;33.13;;;7.63;;
51981;SDS011;37998;53.416;6.730;2023-03-13T03:03:35;31.77;;;8.00;;
51981;SDS011;37998;53.416;6.730;2023-03-13T03:06:02;28.13;;;7.45;;
51981;SDS011;37998;53.416;6.730;2023-03-13T03:08:29;30.15;;;7.47;;
51981;SDS011;37998;53.416;6.730;2023-03-13T03:10:55;26.23;;;7.47;;
51981;SDS011;37998;53.416;6.730;2023-03-13T03:13:20;30.00;;;7.32;;
51981;SDS011;37998;53.416;6.730;2023-03-13T03:15:46;29.70;;;7.78;;
51981;SDS011;37998;53.416;6.730;2023-03-13T03:18:12;22.58;;;7.65;;
51981;SDS011;37998;53.416;6.730;2023-03-13T03:20:37;23.60;;;6.47;;
51981;SDS011;37998;53.416;6.730;2023-03-13T03:23:03;20.77;;;6.53;;
51981;SDS011;37998;53.416;6.730;2023-03-13T03:25:28;16.95;;;6.35;;
51981;SDS011;37998;53.416;6.730;2023-03-13T03:27:54;22.60;;;6.30;;
51981;SDS011;37998;53.416;6.730;2023-03-13T03:30:20;20.17;;;6.63;;
51981;SDS011;37998;53.416;6.730;2023-03-13T03:32:45;14.68;;;5.55;;
51981;SDS011;37998;53.416;6.730;2023-03-13T03:35:11;10.65;;;4.43;;
51981;SDS011;37998;53.416;6.730;2023-03-13T03:37:37;9.98;;;4.20;;
51981;SDS011;37998;53.416;6.730;2023-03-13T03:40:02;14.15;;;4.75;;
51981;SDS011;37998;53.416;6.730;2023-03-13T03:42:31;9.27;;;4.30;;
51981;SDS011;37998;53.416;6.730;2023-03-13T03:44:57;8.40;;;3.70;;
51981;SDS011;37998;53.416;6.730;2023-03-13T03:47:23;10.93;;;4.32;;
51981;SDS011;37998;53.416;6.730;2023-03-13T03:49:49;8.98;;;4.45;;
51981;SDS011;37998;53.416;6.730;2023-03-13T03:52:14;12.50;;;4.55;;
51981;SDS011;37998;53.416;6.730;2023-03-13T03:54:41;9.35;;;4.18;;
51981;SDS011;37998;53.416;6.730;2023-03-13T03:57:06;7.30;;;4.47;;
51981;SDS011;37998;53.416;6.730;2023-03-13T03:59:32;8.07;;;3.97;;
51981;SDS011;37998;53.416;6.730;2023-03-13T04:01:58;7.57;;;4.05;;
51981;SDS011;37998;53.416;6.730;2023-03-13T04:04:23;9.02;;;4.28;;
51981;SDS011;37998;53.416;6.730;2023-03-13T04:06:49;6.50;;;4.15;;
51981;SDS011;37998;53.416;6.730;2023-03-13T04:09:15;11.10;;;4.20;;
51981;SDS011;37998;53.416;6.730;2023-03-13T04:11:41;5.10;;;3.95;;
51981;SDS011;37998;53.416;6.730;2023-03-13T04:14:06;9.32;;;3.95;;
51981;SDS011;37998;53.416;6.730;2023-03-13T04:16:32;9.57;;;3.92;;
51981;SDS011;37998;53.416;6.730;2023-03-13T04:18:57;8.45;;;3.80;;
51981;SDS011;37998;53.416;6.730;2023-03-13T04:21:23;5.25;;;3.30;;
51981;SDS011;37998;53.416;6.730;2023-03-13T04:23:49;5.30;;;3.63;;
51981;SDS011;37998;53.416;6.730;2023-03-13T04:26:14;5.20;;;3.45;;
51981;SDS011;37998;53.416;6.730;2023-03-13T04:28:40;6.90;;;3.63;;
51981;SDS011;37998;53.416;6.730;2023-03-13T04:31:05;4.65;;;3.72;;
51981;SDS011;37998;53.416;6.730;2023-03-13T04:33:31;5.93;;;3.60;;
51981;SDS011;37998;53.416;6.730;2023-03-13T04:35:57;6.10;;;3.65;;
51981;SDS011;37998;53.416;6.730;2023-03-13T04:38:22;4.47;;;3.85;;
51981;SDS011;37998;53.416;6.730;2023-03-13T04:40:48;6.63;;;3.45;;
51981;SDS011;37998;53.416;6.730;2023-03-13T04:43:14;4.65;;;3.30;;
51981;SDS011;37998;53.416;6.730;2023-03-13T04:45:39;5.70;;;4.22;;
51981;SDS011;37998;53.416;6.730;2023-03-13T04:48:05;8.40;;;4.35;;
51981;SDS011;37998;53.416;6.730;2023-03-13T04:50:31;7.18;;;5.43;;
51981;SDS011;37998;53.416;6.730;2023-03-13T04:52:56;8.82;;;6.22;;
51981;SDS011;37998;53.416;6.730;2023-03-13T04:55:22;10.60;;;6.68;;
51981;SDS011;37998;53.416;6.730;2023-03-13T04:57:48;12.15;;;6.80;;
51981;SDS011;37998;53.416;6.730;2023-03-13T05:00:13;10.27;;;6.65;;
51981;SDS011;37998;53.416;6.730;2023-03-13T05:02:39;14.50;;;7.80;;
51981;SDS011;37998;53.416;6.730;2023-03-13T05:05:05;16.83;;;8.07;;
51981;SDS011;37998;53.416;6.730;2023-03-13T05:07:31;13.32;;;8.30;;
51981;SDS011;37998;53.416;6.730;2023-03-13T05:09:56;15.70;;;9.35;;
51981;SDS011;37998;53.416;6.730;2023-03-13T05:12:22;12.63;;;9.32;;
51981;SDS011;37998;53.416;6.730;2023-03-13T05:14:47;11.68;;;8.43;;
51981;SDS011;37998;53.416;6.730;2023-03-13T05:17:14;13.85;;;8.88;;
51981;SDS011;37998;53.416;6.730;2023-03-13T05:19:41;12.98;;;9.82;;
51981;SDS011;37998;53.416;6.730;2023-03-13T05:22:07;12.93;;;8.90;;
51981;SDS011;37998;53.416;6.730;2023-03-13T05:24:33;14.82;;;8.35;;
51981;SDS011;37998;53.416;6.730;2023-03-13T05:26:58;13.05;;;8.70;;
51981;SDS011;37998;53.416;6.730;2023-03-13T05:29:24;16.45;;;9.05;;
51981;SDS011;37998;53.416;6.730;2023-03-13T05:31:50;14.05;;;9.10;;
51981;SDS011;37998;53.416;6.730;2023-03-13T05:34:16;18.50;;;10.32;;
51981;SDS011;37998;53.416;6.730;2023-03-13T05:36:42;17.33;;;8.63;;
51981;SDS011;37998;53.416;6.730;2023-03-13T05:39:08;20.77;;;10.60;;
51981;SDS011;37998;53.416;6.730;2023-03-13T05:41:33;21.38;;;10.27;;
51981;SDS011;37998;53.416;6.730;2023-03-13T05:44:02;15.48;;;8.93;;
51981;SDS011;37998;53.416;6.730;2023-03-13T05:46:28;17.30;;;8.20;;
51981;SDS011;37998;53.416;6.730;2023-03-13T05:48:53;14.32;;;7.85;;
51981;SDS011;37998;53.416;6.730;2023-03-13T05:51:19;15.85;;;7.38;;
51981;SDS011;37998;53.416;6.730;2023-03-13T05:53:44;15.70;;;7.88;;
51981;SDS011;37998;53.416;6.730;2023-03-13T05:56:10;11.55;;;7.32;;
51981;SDS011;37998;53.416;6.730;2023-03-13T05:58:36;14.05;;;7.13;;
51981;SDS011;37998;53.416;6.730;2023-03-13T06:01:08;15.07;;;7.30;;
51981;SDS011;37998;53.416;6.730;2023-03-13T06:03:35;15.65;;;6.97;;
51981;SDS011;37998;53.416;6.730;2023-03-13T06:06:01;12.02;;;7.35;;
51981;SDS011;37998;53.416;6.730;2023-03-13T06:08:26;13.30;;;6.65;;
51981;SDS011;37998;53.416;6.730;2023-03-13T06:10:53;16.40;;;6.40;;
51981;SDS011;37998;53.416;6.730;2023-03-13T06:13:18;16.10;;;6.10;;
51981;SDS011;37998;53.416;6.730;2023-03-13T06:15:51;15.45;;;6.25;;
51981;SDS011;37998;53.416;6.730;2023-03-13T06:18:17;15.25;;;6.75;;
51981;SDS011;37998;53.416;6.730;2023-03-13T06:20:43;15.13;;;6.82;;
51981;SDS011;37998;53.416;6.730;2023-03-13T06:23:09;14.80;;;7.35;;
51981;SDS011;37998;53.416;6.730;2023-03-13T06:25:34;22.67;;;7.70;;
51981;SDS011;37998;53.416;6.730;2023-03-13T06:28:00;20.42;;;8.07;;
51981;SDS011;37998;53.416;6.730;2023-03-13T06:30:26;12.05;;;6.65;;
51981;SDS011;37998;53.416;6.730;2023-03-13T06:32:51;19.48;;;6.07;;
51981;SDS011;37998;53.416;6.730;2023-03-13T06:35:17;21.33;;;6.90;;
51981;SDS011;37998;53.416;6.730;2023-03-13T06:37:42;14.13;;;6.53;;
51981;SDS011;37998;53.416;6.730;2023-03-13T06:40:08;15.82;;;6.25;;
51981;SDS011;37998;53.416;6.730;2023-03-13T06:42:35;17.92;;;7.43;;
51981;SDS011;37998;53.416;6.730;2023-03-13T06:45:00;24.75;;;7.80;;
51981;SDS011;37998;53.416;6.730;2023-03-13T06:47:29;22.70;;;7.03;;
51981;SDS011;37998;53.416;6.730;2023-03-13T06:49:56;23.95;;;7.22;;
51981;SDS011;37998;53.416;6.730;2023-03-13T06:52:22;22.38;;;7.03;;
51981;SDS011;37998;53.416;6.730;2023-03-13T06:54:47;19.75;;;7.05;;
51981;SDS011;37998;53.416;6.730;2023-03-13T06:57:13;27.15;;;7.03;;
51981;SDS011;37998;53.416;6.730;2023-03-13T06:59:39;20.25;;;6.10;;
51981;SDS011;37998;53.416;6.730;2023-03-13T07:02:04;14.75;;;6.40;;
51981;SDS011;37998;53.416;6.730;2023-03-13T07:04:30;15.27;;;6.25;;
51981;SDS011;37998;53.416;6.730;2023-03-13T07:06:56;18.23;;;6.15;;
51981;SDS011;37998;53.416;6.730;2023-03-13T07:09:22;17.38;;;6.03;;
51981;SDS011;37998;53.416;6.730;2023-03-13T07:11:47;17.70;;;5.88;;
51981;SDS011;37998;53.416;6.730;2023-03-13T07:14:13;14.75;;;5.68;;
51981;SDS011;37998;53.416;6.730;2023-03-13T07:16:43;15.38;;;5.40;;
51981;SDS011;37998;53.416;6.730;2023-03-13T07:19:12;17.48;;;5.90;;
51981;SDS011;37998;53.416;6.730;2023-03-13T07:21:39;13.55;;;5.70;;
51981;SDS011;37998;53.416;6.730;2023-03-13T07:24:05;18.73;;;5.40;;
51981;SDS011;37998;53.416;6.730;2023-03-13T07:26:31;18.65;;;5.25;;
51981;SDS011;37998;53.416;6.730;2023-03-13T07:28:57;13.27;;;5.22;;
51981;SDS011;37998;53.416;6.730;2023-03-13T07:31:22;15.88;;;5.30;;
51981;SDS011;37998;53.416;6.730;2023-03-13T07:33:48;19.55;;;5.57;;
51981;SDS011;37998;53.416;6.730;2023-03-13T07:36:17;17.35;;;5.15;;
51981;SDS011;37998;53.416;6.730;2023-03-13T07:38:46;15.20;;;5.50;;
51981;SDS011;37998;53.416;6.730;2023-03-13T07:41:12;11.82;;;5.00;;
51981;SDS011;37998;53.416;6.730;2023-03-13T07:43:38;15.00;;;5.78;;
51981;SDS011;37998;53.416;6.730;2023-03-13T07:46:05;16.02;;;4.82;;
51981;SDS011;37998;53.416;6.730;2023-03-13T07:48:32;13.57;;;5.20;;
51981;SDS011;37998;53.416;6.730;2023-03-13T07:51:00;13.55;;;4.65;;
51981;SDS011;37998;53.416;6.730;2023-03-13T07:53:26;16.65;;;5.60;;
51981;SDS011;37998;53.416;6.730;2023-03-13T07:56:06;15.00;;;5.10;;
51981;SDS011;37998;53.416;6.730;2023-03-13T07:58:34;16.00;;;4.70;;
51981;SDS011;37998;53.416;6.730;2023-03-13T08:01:08;15.10;;;4.60;;
51981;SDS011;37998;53.416;6.730;2023-03-13T08:03:36;9.60;;;4.20;;
51981;SDS011;37998;53.416;6.730;2023-03-13T08:06:08;15.43;;;5.35;;
51981;SDS011;37998;53.416;6.730;2023-03-13T08:08:38;15.98;;;4.95;;
51981;SDS011;37998;53.416;6.730;2023-03-13T08:11:05;11.32;;;4.18;;
51981;SDS011;37998;53.416;6.730;2023-03-13T08:13:36;19.50;;;4.65;;
51981;SDS011;37998;53.416;6.730;2023-03-13T08:18:29;10.35;;;3.95;;
51981;SDS011;37998;53.416;6.730;2023-03-13T08:20:59;15.25;;;4.43;;
51981;SDS011;37998;53.416;6.730;2023-03-13T08:23:27;9.27;;;4.07;;
51981;SDS011;37998;53.416;6.730;2023-03-13T08:25:52;11.88;;;3.90;;
51981;SDS011;37998;53.416;6.730;2023-03-13T08:28:18;11.40;;;3.58;;
51981;SDS011;37998;53.416;6.730;2023-03-13T08:30:44;10.50;;;3.08;;
51981;SDS011;37998;53.416;6.730;2023-03-13T08:33:10;13.95;;;3.88;;
51981;SDS011;37998;53.416;6.730;2023-03-13T08:35:36;10.55;;;3.70;;
51981;SDS011;37998;53.416;6.730;2023-03-13T08:38:01;11.35;;;3.20;;
51981;SDS011;37998;53.416;6.730;2023-03-13T08:40:27;11.65;;;3.35;;
51981;SDS011;37998;53.416;6.730;2023-03-13T08:42:52;9.55;;;3.03;;
51981;SDS011;37998;53.416;6.730;2023-03-13T08:45:18;7.57;;;2.65;;
51981;SDS011;37998;53.416;6.730;2023-03-13T08:47:44;8.38;;;3.28;;
51981;SDS011;37998;53.416;6.730;2023-03-13T08:50:10;5.97;;;2.70;;
51981;SDS011;37998;53.416;6.730;2023-03-13T08:52:36;10.60;;;3.30;;
51981;SDS011;37998;53.416;6.730;2023-03-13T08:55:01;6.47;;;2.88;;
51981;SDS011;37998;53.416;6.730;2023-03-13T08:57:27;8.88;;;3.10;;
51981;SDS011;37998;53.416;6.730;2023-03-13T08:59:53;9.63;;;2.85;;
51981;SDS011;37998;53.416;6.730;2023-03-13T09:02:18;8.90;;;3.10;;
51981;SDS011;37998;53.416;6.730;2023-03-13T09:04:45;9.77;;;3.33;;
51981;SDS011;37998;53.416;6.730;2023-03-13T09:07:12;7.28;;;3.05;;
51981;SDS011;37998;53.416;6.730;2023-03-13T09:09:38;8.98;;;2.95;;
51981;SDS011;37998;53.416;6.730;2023-03-13T09:12:04;13.73;;;2.78;;
51981;SDS011;37998;53.416;6.730;2023-03-13T09:14:29;11.07;;;2.67;;
51981;SDS011;37998;53.416;6.730;2023-03-13T09:16:55;12.02;;;2.88;;
51981;SDS011;37998;53.416;6.730;2023-03-13T09:19:23;11.63;;;2.78;;
51981;SDS011;37998;53.416;6.730;2023-03-13T09:21:49;7.10;;;2.45;;
51981;SDS011;37998;53.416;6.730;2023-03-13T09:24:14;10.25;;;3.22;;
51981;SDS011;37998;53.416;6.730;2023-03-13T09:26:40;5.72;;;2.17;;
51981;SDS011;37998;53.416;6.730;2023-03-13T09:29:06;5.50;;;2.28;;
51981;SDS011;37998;53.416;6.730;2023-03-13T09:31:32;6.40;;;2.53;;
51981;SDS011;37998;53.416;6.730;2023-03-13T09:33:58;6.40;;;2.45;;
51981;SDS011;37998;53.416;6.730;2023-03-13T09:36:24;8.15;;;2.60;;
51981;SDS011;37998;53.416;6.730;2023-03-13T09:38:52;7.65;;;2.95;;
51981;SDS011;37998;53.416;6.730;2023-03-13T09:41:23;9.88;;;2.72;;
51981;SDS011;37998;53.416;6.730;2023-03-13T09:46:25;9.07;;;2.55;;
51981;SDS011;37998;53.416;6.730;2023-03-13T09:48:59;7.50;;;2.60;;
51981;SDS011;37998;53.416;6.730;2023-03-13T09:51:29;12.98;;;2.90;;
51981;SDS011;37998;53.416;6.730;2023-03-13T09:56:56;6.45;;;2.38;;
51981;SDS011;37998;53.416;6.730;2023-03-13T10:01:59;9.65;;;2.65;;
51981;SDS011;37998;53.416;6.730;2023-03-13T10:04:39;10.65;;;2.90;;
51981;SDS011;37998;53.416;6.730;2023-03-13T10:07:11;11.98;;;2.85;;
51981;SDS011;37998;53.416;6.730;2023-03-13T10:09:37;11.20;;;3.38;;
51981;SDS011;37998;53.416;6.730;2023-03-13T10:12:18;8.55;;;3.63;;
51981;SDS011;37998;53.416;6.730;2023-03-13T10:14:55;13.68;;;2.88;;
51981;SDS011;37998;53.416;6.730;2023-03-13T10:17:40;13.50;;;3.88;;
51981;SDS011;37998;53.416;6.730;2023-03-13T10:22:43;16.02;;;4.10;;
51981;SDS011;37998;53.416;6.730;2023-03-13T10:27:47;16.08;;;3.58;;
51981;SDS011;37998;53.416;6.730;2023-03-13T10:30:24;18.55;;;4.35;;
51981;SDS011;37998;53.416;6.730;2023-03-13T10:32:59;11.00;;;3.00;;
51981;SDS011;37998;53.416;6.730;2023-03-13T10:35:42;17.13;;;3.92;;
51981;SDS011;37998;53.416;6.730;2023-03-13T10:38:13;18.88;;;3.70;;
51981;SDS011;37998;53.416;6.730;2023-03-13T10:40:41;10.45;;;3.78;;
51981;SDS011;37998;53.416;6.730;2023-03-13T10:43:12;12.75;;;3.78;;
51981;SDS011;37998;53.416;6.730;2023-03-13T10:45:42;17.45;;;4.55;;
51981;SDS011;37998;53.416;6.730;2023-03-13T10:48:24;12.75;;;4.45;;
51981;SDS011;37998;53.416;6.730;2023-03-13T10:50:54;20.00;;;4.85;;
51981;SDS011;37998;53.416;6.730;2023-03-13T10:53:30;17.15;;;4.50;;
51981;SDS011;37998;53.416;6.730;2023-03-13T10:58:33;16.60;;;3.92;;
51981;SDS011;37998;53.416;6.730;2023-03-13T11:03:53;19.77;;;5.50;;
51981;SDS011;37998;53.416;6.730;2023-03-13T11:11:28;19.10;;;4.65;;
51981;SDS011;37998;53.416;6.730;2023-03-13T11:14:17;17.60;;;4.10;;
51981;SDS011;37998;53.416;6.730;2023-03-13T11:16:49;15.18;;;4.90;;
51981;SDS011;37998;53.416;6.730;2023-03-13T11:19:21;17.75;;;4.50;;
51981;SDS011;37998;53.416;6.730;2023-03-13T11:21:59;15.20;;;4.75;;
51981;SDS011;37998;53.416;6.730;2023-03-13T11:24:49;17.58;;;4.50;;
51981;SDS011;37998;53.416;6.730;2023-03-13T11:35:48;19.08;;;4.03;;
51981;SDS011;37998;53.416;6.730;2023-03-13T11:38:34;18.38;;;3.90;;
51981;SDS011;37998;53.416;6.730;2023-03-13T11:41:16;22.65;;;6.10;;
51981;SDS011;37998;53.416;6.730;2023-03-13T11:56:57;16.23;;;3.22;;
51981;SDS011;37998;53.416;6.730;2023-03-13T11:59:40;15.90;;;3.42;;
51981;SDS011;37998;53.416;6.730;2023-03-13T12:02:31;15.00;;;3.22;;
51981;SDS011;37998;53.416;6.730;2023-03-13T12:05:00;12.57;;;3.00;;
51981;SDS011;37998;53.416;6.730;2023-03-13T12:12:39;10.95;;;3.75;;
51981;SDS011;37998;53.416;6.730;2023-03-13T12:15:21;14.02;;;4.32;;
51981;SDS011;37998;53.416;6.730;2023-03-13T12:17:52;17.58;;;5.20;;
51981;SDS011;37998;53.416;6.730;2023-03-13T12:20:29;15.30;;;4.93;;
51981;SDS011;37998;53.416;6.730;2023-03-13T12:23:19;21.10;;;4.30;;
51981;SDS011;37998;53.416;6.730;2023-03-13T12:26:12;21.33;;;4.60;;
51981;SDS011;37998;53.416;6.730;2023-03-13T12:34:27;19.85;;;4.60;;
51981;SDS011;37998;53.416;6.730;2023-03-13T12:39:34;20.05;;;5.03;;
51981;SDS011;37998;53.416;6.730;2023-03-13T12:42:35;17.90;;;3.70;;
51981;SDS011;37998;53.416;6.730;2023-03-13T12:45:18;20.92;;;4.47;;
51981;SDS011;37998;53.416;6.730;2023-03-13T12:53:02;18.73;;;4.72;;
51981;SDS011;37998;53.416;6.730;2023-03-13T13:04:30;17.45;;;4.55;;
51981;SDS011;37998;53.416;6.730;2023-03-13T13:06:52;19.67;;;5.18;;
51981;SDS011;37998;53.416;6.730;2023-03-13T13:09:32;17.67;;;4.70;;
51981;SDS011;37998;53.416;6.730;2023-03-13T13:12:19;26.73;;;4.55;;
51981;SDS011;37998;53.416;6.730;2023-03-13T13:25:45;27.60;;;5.07;;
51981;SDS011;37998;53.416;6.730;2023-03-13T13:30:46;19.85;;;5.53;;
51981;SDS011;37998;53.416;6.730;2023-03-13T13:38:42;21.77;;;5.18;;
51981;SDS011;37998;53.416;6.730;2023-03-13T13:48:37;18.33;;;5.05;;
51981;SDS011;37998;53.416;6.730;2023-03-13T14:01:44;16.83;;;4.68;;
51981;SDS011;37998;53.416;6.730;2023-03-13T14:04:15;20.77;;;5.10;;
51981;SDS011;37998;53.416;6.730;2023-03-13T14:06:53;24.05;;;5.25;;
51981;SDS011;37998;53.416;6.730;2023-03-13T14:12:24;26.65;;;5.32;;
51981;SDS011;37998;53.416;6.730;2023-03-13T14:17:46;18.98;;;4.68;;
51981;SDS011;37998;53.416;6.730;2023-03-13T14:20:22;20.45;;;5.38;;
51981;SDS011;37998;53.416;6.730;2023-03-13T14:22:51;21.88;;;5.50;;
51981;SDS011;37998;53.416;6.730;2023-03-13T14:25:18;24.23;;;5.72;;
51981;SDS011;37998;53.416;6.730;2023-03-13T14:27:45;18.85;;;4.80;;
51981;SDS011;37998;53.416;6.730;2023-03-13T14:30:13;20.10;;;5.25;;
51981;SDS011;37998;53.416;6.730;2023-03-13T14:32:42;19.15;;;4.70;;
51981;SDS011;37998;53.416;6.730;2023-03-13T14:35:09;18.23;;;5.10;;
51981;SDS011;37998;53.416;6.730;2023-03-13T14:37:50;17.83;;;4.95;;
51981;SDS011;37998;53.416;6.730;2023-03-13T14:40:25;17.20;;;4.68;;
51981;SDS011;37998;53.416;6.730;2023-03-13T14:42:57;29.58;;;6.72;;
51981;SDS011;37998;53.416;6.730;2023-03-13T14:47:59;33.20;;;5.30;;
51981;SDS011;37998;53.416;6.730;2023-03-13T14:50:27;23.13;;;5.50;;
51981;SDS011;37998;53.416;6.730;2023-03-13T14:52:54;32.15;;;5.72;;
51981;SDS011;37998;53.416;6.730;2023-03-13T14:55:26;24.90;;;5.88;;
51981;SDS011;37998;53.416;6.730;2023-03-13T14:58:05;19.88;;;4.90;;
51981;SDS011;37998;53.416;6.730;2023-03-13T15:00:49;29.33;;;6.38;;
51981;SDS011;37998;53.416;6.730;2023-03-13T15:08:25;23.08;;;5.53;;
51981;SDS011;37998;53.416;6.730;2023-03-13T15:10:51;26.85;;;6.50;;
51981;SDS011;37998;53.416;6.730;2023-03-13T15:13:30;24.65;;;5.70;;
51981;SDS011;37998;53.416;6.730;2023-03-13T15:15:58;26.75;;;6.20;;
51981;SDS011;37998;53.416;6.730;2023-03-13T15:18:25;26.33;;;6.63;;
51981;SDS011;37998;53.416;6.730;2023-03-13T15:20:56;28.27;;;5.60;;
51981;SDS011;37998;53.416;6.730;2023-03-13T15:23:23;27.30;;;7.13;;
51981;SDS011;37998;53.416;6.730;2023-03-13T15:25:50;26.13;;;5.63;;
51981;SDS011;37998;53.416;6.730;2023-03-13T15:28:20;25.75;;;6.15;;
51981;SDS011;37998;53.416;6.730;2023-03-13T15:30:47;25.05;;;6.65;;
51981;SDS011;37998;53.416;6.730;2023-03-13T15:33:18;27.08;;;6.65;;
51981;SDS011;37998;53.416;6.730;2023-03-13T15:35:47;22.50;;;5.88;;
51981;SDS011;37998;53.416;6.730;2023-03-13T15:38:15;21.92;;;6.03;;
51981;SDS011;37998;53.416;6.730;2023-03-13T15:40:43;27.83;;;6.10;;
51981;SDS011;37998;53.416;6.730;2023-03-13T15:43:09;31.50;;;6.32;;
51981;SDS011;37998;53.416;6.730;2023-03-13T15:45:35;25.80;;;7.05;;
51981;SDS011;37998;53.416;6.730;2023-03-13T15:48:04;24.10;;;6.40;;
51981;SDS011;37998;53.416;6.730;2023-03-13T15:50:43;24.10;;;6.38;;
51981;SDS011;37998;53.416;6.730;2023-03-13T15:53:29;29.95;;;8.07;;
51981;SDS011;37998;53.416;6.730;2023-03-13T15:55:57;31.42;;;6.95;;
51981;SDS011;37998;53.416;6.730;2023-03-13T15:58:25;26.33;;;5.72;;
51981;SDS011;37998;53.416;6.730;2023-03-13T16:00:52;27.88;;;6.40;;
51981;SDS011;37998;53.416;6.730;2023-03-13T16:03:20;32.50;;;6.78;;
51981;SDS011;37998;53.416;6.730;2023-03-13T16:05:50;31.05;;;6.57;;
51981;SDS011;37998;53.416;6.730;2023-03-13T16:08:17;28.60;;;6.13;;
51981;SDS011;37998;53.416;6.730;2023-03-13T16:10:47;27.88;;;7.40;;
51981;SDS011;37998;53.416;6.730;2023-03-13T16:13:14;26.90;;;6.78;;
51981;SDS011;37998;53.416;6.730;2023-03-13T16:15:40;27.98;;;6.47;;
51981;SDS011;37998;53.416;6.730;2023-03-13T16:18:08;22.98;;;6.13;;
51981;SDS011;37998;53.416;6.730;2023-03-13T16:20:47;28.75;;;7.32;;
51981;SDS011;37998;53.416;6.730;2023-03-13T16:23:14;23.52;;;5.55;;
51981;SDS011;37998;53.416;6.730;2023-03-13T16:25:40;24.27;;;5.70;;
51981;SDS011;37998;53.416;6.730;2023-03-13T16:28:09;29.23;;;6.65;;
51981;SDS011;37998;53.416;6.730;2023-03-13T16:30:37;28.23;;;6.30;;
51981;SDS011;37998;53.416;6.730;2023-03-13T16:33:05;29.50;;;6.82;;
51981;SDS011;37998;53.416;6.730;2023-03-13T16:35:31;29.35;;;6.25;;
51981;SDS011;37998;53.416;6.730;2023-03-13T16:37:58;33.92;;;6.75;;
51981;SDS011;37998;53.416;6.730;2023-03-13T16:40:24;26.58;;;6.75;;
51981;SDS011;37998;53.416;6.730;2023-03-13T16:42:51;24.35;;;6.28;;
51981;SDS011;37998;53.416;6.730;2023-03-13T16:45:17;24.60;;;6.72;;
51981;SDS011;37998;53.416;6.730;2023-03-13T16:47:43;31.08;;;7.05;;
51981;SDS011;37998;53.416;6.730;2023-03-13T16:52:51;29.15;;;7.03;;
51981;SDS011;37998;53.416;6.730;2023-03-13T16:55:18;31.40;;;6.75;;
51981;SDS011;37998;53.416;6.730;2023-03-13T16:57:45;31.52;;;6.38;;
51981;SDS011;37998;53.416;6.730;2023-03-13T17:00:12;29.33;;;6.40;;
51981;SDS011;37998;53.416;6.730;2023-03-13T17:02:38;35.83;;;6.50;;
51981;SDS011;37998;53.416;6.730;2023-03-13T17:05:04;31.95;;;6.53;;
51981;SDS011;37998;53.416;6.730;2023-03-13T17:07:30;25.45;;;6.78;;